Time;durP1;ratioP1;P1;durP2;ratioP2;P2;SDS_P1;SDS_P2;PMS_P1;PMS_P2;Temp;Humidity;BMP_temperature;BMP_pressure;BME280_temperature;BME280_humidity;BME280_pressure;Samples;Min_cycle;Max_cycle;Signal;HPM_P1;HPM_P2
2023/10/11 00:00:37;;;;;;;15.27;7.43;;;;;;;20.79;95.25;96565.44;5108221;28;20363;-81
2023/10/11 00:03:06;;;;;;;16.90;6.47;;;;;;;20.94;92.77;96568.63;5085292;28;20027;-81
2023/10/11 00:05:41;;;;;;;14.77;6.57;;;;;;;20.91;93.00;96565.56;5092665;28;20382;-81
2023/10/11 00:08:08;;;;;;;15.33;6.50;;;;;;;20.75;94.06;96572.22;5111111;28;20061;-81
2023/10/11 00:10:43;;;;;;;15.33;6.20;;;;;;;20.80;95.52;96567.06;5084755;28;20036;-81
2023/10/11 00:13:15;;;;;;;16.77;7.60;;;;;;;20.77;94.46;96570.16;5092529;28;20015;-81
2023/10/11 00:15:51;;;;;;;15.47;6.83;;;;;;;20.71;95.98;96565.69;5092285;28;20026;-82
2023/10/11 00:18:22;;;;;;;15.63;6.43;;;;;;;20.48;97.61;96567.00;5109467;28;20530;-82
2023/10/11 00:20:58;;;;;;;17.50;6.13;;;;;;;20.81;95.04;96560.69;5109135;28;20019;-81
2023/10/11 00:23:28;;;;;;;14.13;7.23;;;;;;;20.87;94.99;96557.16;5092273;28;20027;-81
2023/10/11 00:25:58;;;;;;;20.57;7.37;;;;;;;20.68;94.66;96553.56;5092176;28;20027;-81
2023/10/11 00:28:26;;;;;;;17.10;6.60;;;;;;;20.56;96.40;96551.81;5105068;28;20024;-81
2023/10/11 00:30:56;;;;;;;16.10;5.90;;;;;;;20.81;95.31;96547.31;5109627;28;20031;-81
2023/10/11 00:33:22;;;;;;;16.37;7.03;;;;;;;20.76;94.83;96559.69;5105651;28;20038;-81
2023/10/11 00:35:50;;;;;;;15.07;6.60;;;;;;;20.90;94.19;96551.38;5105195;28;20031;-81
2023/10/11 00:38:20;;;;;;;14.20;7.40;;;;;;;20.99;92.51;96551.09;5105042;28;20397;-81
2023/10/11 00:41:12;;;;;;;14.33;7.07;;;;;;;20.95;90.68;96550.72;5084615;28;20080;-81
2023/10/11 00:43:46;;;;;;;18.70;6.60;;;;;;;21.00;91.42;96542.06;5091930;28;20500;-81
2023/10/11 00:46:14;;;;;;;12.83;5.77;;;;;;;20.34;99.35;96544.06;5089700;28;20122;-81
2023/10/11 00:48:54;;;;;;;15.33;6.70;;;;;;;20.18;100.00;96547.22;5108800;28;20027;-81
2023/10/11 00:51:20;;;;;;;15.27;6.40;;;;;;;20.06;100.00;96549.75;5091261;28;20397;-81
2023/10/11 00:53:47;;;;;;;15.10;6.40;;;;;;;20.30;99.88;96550.88;5090984;28;20110;-81
2023/10/11 00:56:14;;;;;;;18.83;6.57;;;;;;;20.83;95.28;96541.78;5082139;28;20688;-81
2023/10/11 00:58:41;;;;;;;20.07;7.57;;;;;;;20.87;93.17;96541.13;5106014;28;20035;-81
2023/10/11 01:01:08;;;;;;;12.13;6.47;;;;;;;20.95;92.80;96543.50;5090291;28;20027;-81
2023/10/11 01:03:37;;;;;;;17.20;7.10;;;;;;;20.72;93.95;96537.91;5090592;28;20042;-81
2023/10/11 01:06:04;;;;;;;13.60;5.77;;;;;;;20.67;96.04;96530.56;5096275;28;20039;-81
2023/10/11 01:08:39;;;;;;;18.17;6.60;;;;;;;20.92;89.89;96529.75;5103840;28;20023;-81
2023/10/11 01:11:11;;;;;;;15.33;6.03;;;;;;;20.63;93.33;96528.53;5108858;28;20024;-81
2023/10/11 01:13:40;;;;;;;14.80;7.33;;;;;;;21.38;88.61;96521.38;5090689;28;20036;-81
2023/10/11 01:16:10;;;;;;;15.30;7.40;;;;;;;21.26;89.29;96523.13;5091137;28;20114;-81
2023/10/11 01:18:39;;;;;;;14.80;6.23;;;;;;;21.45;88.14;96528.53;5087456;28;20043;-81
2023/10/11 01:21:05;;;;;;;15.10;6.83;;;;;;;21.24;89.89;96525.19;5104638;28;20156;-81
2023/10/11 01:23:34;;;;;;;16.43;8.60;;;;;;;21.33;88.86;96523.88;5082150;28;20036;-81
2023/10/11 01:26:07;;;;;;;18.10;8.47;;;;;;;20.79;91.51;96528.03;5090840;28;20019;-82
2023/10/11 01:28:37;;;;;;;23.13;8.32;;;;;;;20.90;90.33;96529.19;5100554;28;20019;-81
2023/10/11 01:31:08;;;;;;;17.20;8.13;;;;;;;20.81;92.51;96525.94;5092111;28;20118;-82
2023/10/11 01:33:41;;;;;;;18.87;7.57;;;;;;;20.69;95.45;96524.97;5089281;28;20020;-82
2023/10/11 01:36:11;;;;;;;16.93;6.57;;;;;;;20.57;92.35;96524.88;5092126;28;20089;-81
2023/10/11 01:38:48;;;;;;;15.77;6.70;;;;;;;20.77;93.58;96515.91;5092235;28;20496;-81
2023/10/11 01:41:16;;;;;;;20.30;7.40;;;;;;;21.02;89.38;96510.56;5091984;28;20114;-81
2023/10/11 01:43:45;;;;;;;15.40;7.27;;;;;;;20.79;89.83;96517.34;5084380;28;20027;-81
2023/10/11 01:46:18;;;;;;;16.97;7.00;;;;;;;21.24;88.31;96508.31;5087351;28;20026;-82
2023/10/11 01:48:47;;;;;;;15.30;6.97;;;;;;;21.07;87.71;96508.06;5107063;28;20018;-81
2023/10/11 01:51:20;;;;;;;11.87;6.17;;;;;;;21.06;89.04;96503.72;5091659;28;20027;-81
2023/10/11 01:53:46;;;;;;;17.13;6.50;;;;;;;21.27;88.44;96502.53;5080176;28;20525;-81
2023/10/11 01:56:13;;;;;;;19.93;7.33;;;;;;;21.18;86.61;96502.81;5107057;28;20378;-81
2023/10/11 01:58:42;;;;;;;16.10;6.23;;;;;;;21.46;86.65;96500.72;5106476;28;20385;-81
2023/10/11 02:01:22;;;;;;;14.23;6.37;;;;;;;21.04;87.34;96501.28;5088177;28;20024;-82
2023/10/11 02:03:54;;;;;;;15.20;6.23;;;;;;;21.42;86.85;96501.16;5110442;28;20028;-82
2023/10/11 02:06:23;;;;;;;12.70;6.33;;;;;;;21.55;83.68;96504.75;5094772;28;20092;-82
2023/10/11 02:08:50;;;;;;;14.93;6.50;;;;;;;21.48;86.11;96504.81;5093562;28;20064;-82
2023/10/11 02:11:17;;;;;;;13.27;6.83;;;;;;;21.59;86.47;96500.59;5103245;28;20101;-82
2023/10/11 02:13:43;;;;;;;15.80;6.30;;;;;;;21.07;87.34;96502.72;5094199;28;20035;-81
2023/10/11 02:16:14;;;;;;;15.80;6.67;;;;;;;21.14;87.41;96498.13;5099851;28;20031;-81
2023/10/11 02:18:41;;;;;;;13.53;5.67;;;;;;;21.28;86.51;96499.63;5104838;28;20031;-81
2023/10/11 02:21:06;;;;;;;18.17;6.43;;;;;;;21.03;89.29;96497.00;5093498;28;20385;-81
2023/10/11 02:23:40;;;;;;;15.87;5.97;;;;;;;21.09;87.56;96495.28;5107626;28;20031;-80
2023/10/11 02:26:12;;;;;;;17.13;6.97;;;;;;;21.40;86.43;96497.09;5090507;28;20027;-81
2023/10/11 02:28:41;;;;;;;24.23;7.00;;;;;;;21.49;83.78;96493.06;5093032;28;20546;-81
2023/10/11 02:31:08;;;;;;;14.90;7.03;;;;;;;21.54;81.83;96492.41;5094111;28;20016;-82
2023/10/11 02:33:35;;;;;;;14.90;6.57;;;;;;;21.25;84.80;96494.72;5093870;28;20026;-81
2023/10/11 02:36:08;;;;;;;18.33;7.10;;;;;;;21.67;82.13;96489.59;5094216;28;20526;-81
2023/10/11 02:38:47;;;;;;;13.80;6.43;;;;;;;21.64;80.09;96482.03;5088830;28;20346;-82
2023/10/11 02:41:26;;;;;;;17.87;5.90;;;;;;;21.68;80.96;96488.56;5085349;28;21682;-81
2023/10/11 02:43:52;;;;;;;16.50;6.30;;;;;;;21.30;83.59;96478.84;5091913;28;20050;-81
2023/10/11 02:46:32;;;;;;;16.13;6.30;;;;;;;21.21;84.83;96482.84;5101973;28;20020;-81
2023/10/11 02:49:07;;;;;;;15.53;6.10;;;;;;;21.17;84.06;96485.13;5093038;28;20080;-81
2023/10/11 02:51:35;;;;;;;15.45;6.70;;;;;;;21.29;82.35;96485.22;5093173;28;20031;-82
2023/10/11 02:54:05;;;;;;;13.93;6.07;;;;;;;21.46;80.65;96479.31;5092882;28;20024;-81
2023/10/11 02:56:46;;;;;;;16.10;5.77;;;;;;;21.26;80.29;96484.84;5089438;28;20028;-81
2023/10/11 02:59:22;;;;;;;15.03;6.60;;;;;;;21.02;84.90;96481.16;5090386;28;20039;-81
2023/10/11 03:02:00;;;;;;;14.87;6.30;;;;;;;21.08;83.20;96488.28;5091940;28;20115;-81
2023/10/11 03:04:41;;;;;;;11.93;5.30;;;;;;;21.16;83.00;96490.72;5105766;28;20019;-82
2023/10/11 03:07:12;;;;;;;14.63;5.63;;;;;;;21.01;83.12;96484.88;5091162;28;20724;-81
2023/10/11 03:09:40;;;;;;;15.43;5.87;;;;;;;21.28;80.78;96488.94;5087220;28;20400;-82
2023/10/11 03:12:10;;;;;;;13.93;5.53;;;;;;;21.67;79.47;96486.94;5090323;28;20023;-81
2023/10/11 03:14:54;;;;;;;13.40;4.80;;;;;;;21.31;80.28;96477.78;5086400;28;20019;-81
2023/10/11 03:17:21;;;;;;;12.07;5.73;;;;;;;21.15;81.52;96478.34;5077263;28;20036;-82
2023/10/11 03:19:49;;;;;;;14.83;5.97;;;;;;;20.94;83.52;96480.38;5094204;28;20089;-81
2023/10/11 03:22:21;;;;;;;17.90;5.83;;;;;;;20.94;84.71;96484.91;5101907;28;20389;-81
2023/10/11 03:24:53;;;;;;;11.00;5.03;;;;;;;21.31;82.19;96487.69;5098945;28;20473;-82
2023/10/11 03:27:27;;;;;;;10.77;5.43;;;;;;;21.51;82.45;96472.28;5090984;28;20068;-81
2023/10/11 03:29:53;;;;;;;;;;;;;;;21.46;81.21;96471.28;5087295;28;20027;-82
2023/10/11 03:32:19;;;;;;;22.07;5.83;;;;;;;21.11;83.22;96477.16;5109763;28;19955;-81
2023/10/11 03:34:45;;;;;;;16.30;6.23;;;;;;;21.13;83.33;96464.41;5089539;28;20482;-81
2023/10/11 03:37:17;;;;;;;18.50;5.87;;;;;;;21.46;79.60;96461.41;5101937;28;20023;-82
2023/10/11 03:39:55;;;;;;;13.05;4.00;;;;;;;21.70;78.25;96464.25;5107237;28;20027;-82
2023/10/11 03:42:27;;;;;;;13.83;5.37;;;;;;;20.99;82.36;96468.22;5092049;28;20028;-82
2023/10/11 03:44:59;;;;;;;14.67;6.13;;;;;;;20.74;83.92;96468.22;5112419;28;20553;-82
2023/10/11 03:47:25;;;;;;;13.00;5.17;;;;;;;21.09;83.23;96465.84;5103572;28;20073;-82
2023/10/11 03:49:51;;;;;;;15.53;5.93;;;;;;;21.10;80.87;96470.19;5109267;28;20031;-82
2023/10/11 03:52:24;;;;;;;15.37;5.50;;;;;;;21.06;80.70;96469.81;5096330;28;20390;-82
2023/10/11 03:55:04;;;;;;;8.45;4.05;;;;;;;21.02;80.76;96468.59;5089663;28;20012;-82
2023/10/11 03:57:35;;;;;;;15.50;5.73;;;;;;;20.80;84.01;96470.03;5110499;28;20066;-82
2023/10/11 04:00:01;;;;;;;15.00;5.73;;;;;;;21.13;81.91;96469.75;5092269;28;20119;-82
2023/10/11 04:02:26;;;;;;;19.97;6.53;;;;;;;21.31;79.21;96463.59;5093601;28;20405;-82
2023/10/11 04:04:52;;;;;;;14.80;4.77;;;;;;;21.01;80.88;96460.81;5111780;28;20024;-82
2023/10/11 04:07:21;;;;;;;14.27;4.90;;;;;;;21.26;82.17;96455.41;5101497;28;20019;-82
2023/10/11 04:09:47;;;;;;;14.20;6.23;;;;;;;21.51;75.44;96455.41;5109669;28;20034;-82
2023/10/11 04:12:13;;;;;;;19.47;5.33;;;;;;;21.41;77.70;96451.38;5094245;28;20028;-82
2023/10/11 04:14:39;;;;;;;14.23;5.53;;;;;;;21.10;78.29;96454.16;5093570;28;20031;-82
2023/10/11 04:19:48;;;;;;;11.20;4.07;;;;;;;21.23;77.41;96456.69;5105153;28;20032;-81
2023/10/11 04:22:16;;;;;;;13.50;5.33;;;;;;;21.30;75.49;96461.97;5111005;28;20020;-81
2023/10/11 04:24:44;;;;;;;21.47;7.33;;;;;;;21.17;78.25;96465.59;5109611;28;20027;-82
2023/10/11 04:29:50;;;;;;;18.97;5.90;;;;;;;20.95;79.73;96457.13;5099991;28;20114;-82
2023/10/11 04:35:36;;;;;;;17.77;5.73;;;;;;;20.91;80.60;96458.63;5076667;28;20574;-81
2023/10/11 04:38:03;;;;;;;14.00;5.90;;;;;;;21.44;75.12;96460.81;5091654;28;20034;-82
2023/10/11 04:43:04;;;;;;;18.30;5.73;;;;;;;20.92;79.74;96457.56;5106360;28;20024;-84
2023/10/11 04:45:44;;;;;;;16.07;5.97;;;;;;;21.22;76.72;96452.34;5106343;28;20028;-82
2023/10/11 04:48:15;;;;;;;12.90;4.90;;;;;;;21.07;80.36;96462.59;5103371;28;20022;-82
2023/10/11 04:50:48;;;;;;;14.40;5.23;;;;;;;20.72;81.28;96452.41;5093003;28;20024;-82
2023/10/11 04:53:18;;;;;;;12.70;5.13;;;;;;;20.62;83.74;96463.59;5090445;28;20072;-82
2023/10/11 04:55:59;;;;;;;19.63;5.73;;;;;;;21.03;79.82;96456.88;5093367;28;20039;-82
2023/10/11 04:58:41;;;;;;;13.83;6.00;;;;;;;21.04;80.79;96461.19;5093680;28;20089;-82
2023/10/11 05:01:11;;;;;;;11.60;5.13;;;;;;;21.18;82.24;96465.34;5088756;28;20196;-82
2023/10/11 05:03:42;;;;;;;15.33;5.90;;;;;;;21.21;80.03;96466.78;5094312;28;20465;-82
2023/10/11 05:06:15;;;;;;;13.40;5.33;;;;;;;21.21;80.71;96469.47;5109081;28;20012;-82
2023/10/11 05:08:51;;;;;;;11.65;5.80;;;;;;;21.10;81.94;96470.19;5093181;28;20011;-82
2023/10/11 05:16:50;;;;;;;13.03;5.77;;;;;;;21.10;79.76;96471.00;5106286;28;20118;-81
2023/10/11 05:19:20;;;;;;;20.83;6.20;;;;;;;21.16;78.47;96474.66;5104654;28;20047;-82
2023/10/11 05:21:53;;;;;;;15.83;5.00;;;;;;;20.90;80.38;96473.84;5104843;28;20039;-81
2023/10/11 05:27:11;;;;;;;14.40;5.80;;;;;;;21.18;78.75;96472.56;5106683;28;20084;-82
2023/10/11 05:32:27;;;;;;;15.67;6.33;;;;;;;21.08;77.83;96473.06;5102781;28;20512;-83
2023/10/11 05:51:40;;;;;;;32.73;9.97;;;;;;;21.72;83.41;96475.53;5111786;27;20027;-88
2023/10/11 05:54:11;;;;;;;24.83;7.87;;;;;;;22.20;79.92;96475.59;5093478;28;20495;-88
2023/10/11 05:56:45;;;;;;;22.07;9.40;;;;;;;22.41;77.72;96484.19;5083614;28;20111;-87
2023/10/11 05:59:13;;;;;;;22.07;14.43;;;;;;;22.61;74.38;96479.34;5087133;28;20073;-83
2023/10/11 06:01:51;;;;;;;47.90;32.97;;;;;;;22.57;72.01;96486.22;5092876;28;20385;-83
2023/10/11 06:04:23;;;;;;;32.50;18.90;;;;;;;22.47;72.84;96483.28;5106178;28;20016;-85
2023/10/11 06:06:57;;;;;;;16.50;8.70;;;;;;;22.65;73.42;96488.56;5088098;28;20027;-83
2023/10/11 06:09:26;;;;;;;15.87;7.27;;;;;;;22.87;68.79;96488.00;5108358;28;20023;-84
2023/10/11 06:11:52;;;;;;;14.67;6.93;;;;;;;22.83;70.37;96491.16;5110246;28;20110;-84
2023/10/11 06:14:18;;;;;;;15.97;6.70;;;;;;;23.16;66.39;96486.34;5108720;28;20031;-86
2023/10/11 06:16:57;;;;;;;15.63;6.10;;;;;;;23.11;69.08;96476.31;5110922;28;20027;-85
2023/10/11 06:19:50;;;;;;;11.10;5.90;;;;;;;22.49;70.16;96475.81;5090178;28;20038;-85
2023/10/11 06:22:16;;;;;;;11.40;5.25;;;;;;;22.16;72.33;96478.94;5106751;28;20051;-85
2023/10/11 06:24:44;;;;;;;15.03;5.83;;;;;;;22.18;72.72;96484.91;5088507;28;20033;-84
2023/10/11 06:29:53;;;;;;;26.37;8.20;;;;;;;22.56;74.64;96487.25;5107862;28;20034;-83
2023/10/11 06:32:21;;;;;;;20.27;7.23;;;;;;;23.23;71.41;96479.78;5091067;28;20110;-82
2023/10/11 06:34:48;;;;;;;23.47;7.17;;;;;;;23.43;66.87;96487.50;5090531;28;20486;-82
2023/10/11 06:37:17;;;;;;;16.03;5.97;;;;;;;24.04;60.93;96482.63;5087890;28;20106;-82
2023/10/11 06:42:31;;;;;;;21.33;7.13;;;;;;;24.99;58.11;96488.41;5104907;28;20098;-82
2023/10/11 06:44:59;;;;;;;20.33;6.00;;;;;;;25.04;56.92;96491.19;5105147;28;20405;-82
2023/10/11 06:47:33;;;;;;;19.08;6.88;;;;;;;25.79;54.03;96481.81;5096398;28;20012;-82
2023/10/11 06:50:10;;;;;;;18.25;6.18;;;;;;;26.14;53.17;96486.03;5089100;28;20024;-82
2023/10/11 06:52:37;;;;;;;14.55;6.40;;;;;;;26.37;52.75;96488.44;5107055;28;20483;-82
2023/10/11 06:57:54;;;;;;;16.02;5.68;;;;;;;26.92;47.83;96481.97;5103416;28;20431;-83
2023/10/11 07:00:27;;;;;;;12.73;6.70;;;;;;;27.28;46.87;96476.91;5100833;28;20027;-82
2023/10/11 07:03:26;;;;;;;14.77;7.22;;;;;;;27.53;46.31;96475.44;5106747;28;20023;-84
2023/10/11 07:06:10;;;;;;;16.65;7.15;;;;;;;26.68;47.77;96478.81;5091540;28;20027;-85
2023/10/11 07:08:35;;;;;;;;;;;;;;;26.68;48.41;96480.69;5112382;28;20024;-85
2023/10/11 07:16:19;;;;;;;20.30;6.22;;;;;;;28.52;43.67;96481.84;5109133;28;20073;-85
2023/10/11 07:18:54;;;;;;;14.15;5.22;;;;;;;28.88;42.89;96475.41;5095457;28;20027;-85
2023/10/11 07:21:27;;;;;;;17.92;6.20;;;;;;;29.48;40.18;96480.28;5084857;28;20116;-84
2023/10/11 07:24:19;;;;;;;13.38;6.00;;;;;;;29.92;40.61;96479.63;5087761;28;20035;-85
2023/10/11 07:29:13;;;;;;;13.52;6.50;;;;;;;30.41;41.71;96481.59;5100031;28;20033;-85
2023/10/11 07:31:48;;;;;;;47.47;25.50;;;;;;;29.59;41.53;96479.16;5114809;28;20020;-88
2023/10/11 07:34:20;;;;;;;23.90;7.35;;;;;;;30.14;41.22;96479.25;5098308;28;20052;-86
2023/10/11 07:36:48;;;;;;;27.88;7.40;;;;;;;30.59;40.57;96482.88;5095763;28;20130;-87
2023/10/11 07:39:19;;;;;;;30.20;7.50;;;;;;;29.75;41.94;96488.09;5094666;28;20073;-87
2023/10/11 10:21:17;;;;;;;12.32;4.60;;;;;;;32.83;30.45;96487.91;6265510;22;20024;-85
2023/10/11 10:23:43;;;;;;;16.17;5.00;;;;;;;32.93;30.87;96482.31;6265246;22;20069;-84
2023/10/11 10:26:11;;;;;;;16.98;5.00;;;;;;;32.67;30.13;96486.53;6240629;22;20003;-84
2023/10/11 10:28:36;;;;;;;14.80;4.95;;;;;;;32.20;30.79;96471.91;6241054;22;20015;-84
2023/10/11 10:31:18;;;;;;;12.02;4.30;;;;;;;33.03;30.52;96465.00;6265954;22;20515;-85
2023/10/11 10:33:50;;;;;;;11.63;5.20;;;;;;;32.88;29.88;96468.75;6265329;22;20061;-84
2023/10/11 10:36:21;;;;;;;15.60;4.95;;;;;;;32.74;30.36;96468.72;6266353;22;20442;-86
2023/10/11 10:39:36;;;;;;;10.90;4.72;;;;;;;33.30;30.70;96469.72;6240912;22;20019;-83
2023/10/11 10:42:13;;;;;;;15.40;5.15;;;;;;;32.89;30.95;96466.84;6266785;22;20118;-86
2023/10/11 10:44:51;;;;;;;16.33;4.50;;;;;;;33.40;30.18;96457.84;6266920;22;20058;-87
2023/10/11 10:47:32;;;;;;;12.57;5.03;;;;;;;34.02;29.83;96459.16;6240543;22;20080;-86
2023/10/11 10:50:05;;;;;;;13.60;4.50;;;;;;;32.80;30.64;96466.72;6267339;22;20427;-86
2023/10/11 10:52:31;;;;;;;11.05;4.32;;;;;;;32.52;30.39;96474.72;6239639;22;20517;-86
2023/10/11 10:55:03;;;;;;;15.95;5.10;;;;;;;33.40;29.11;96474.19;6266999;22;20029;-86
2023/10/11 10:57:31;;;;;;;;;;;;;;;32.92;30.65;96477.16;6268416;22;20008;-86
2023/10/11 10:59:59;;;;;;;23.17;5.15;;;;;;;33.41;30.30;96470.38;6268729;22;19911;-86
2023/10/11 11:02:25;;;;;;;14.77;5.00;;;;;;;33.70;29.12;96459.22;6240337;22;20435;-87
2023/10/11 11:04:50;;;;;;;16.52;4.88;;;;;;;34.69;28.76;96460.47;6241934;22;20010;-87
2023/10/11 11:07:23;;;;;;;15.60;6.80;;;;;;;33.51;29.61;96460.13;6242122;22;19999;-91
2023/10/11 11:09:54;;;;;;;16.00;4.95;;;;;;;33.31;29.78;96453.09;6243044;22;20004;-91
2023/10/11 11:12:28;;;;;;;10.75;4.70;;;;;;;33.21;29.83;96449.72;6243148;22;20035;-86
2023/10/11 11:14:55;;;;;;;12.38;4.07;;;;;;;34.26;27.88;96439.78;6241267;22;20079;-87
2023/10/11 11:17:23;;;;;;;19.13;5.65;;;;;;;32.99;29.37;96448.44;6266166;22;20010;-87
2023/10/11 11:20:51;;;;;;;11.80;4.50;;;;;;;33.02;29.35;96442.41;6266402;22;20349;-85
2023/10/11 11:23:04;;;;;;;19.38;5.20;;;;;;;32.80;29.61;96445.75;6259852;22;20007;-86
2023/10/11 11:25:30;;;;;;;11.95;4.65;;;;;;;33.54;29.02;96424.06;6240770;22;20012;-86
2023/10/11 11:28:26;;;;;;;17.95;4.82;;;;;;;33.74;28.45;96438.44;6240089;22;20430;-83
2023/10/11 11:30:52;;;;;;;10.80;4.65;;;;;;;33.56;29.11;96430.00;6226210;22;20039;-83
2023/10/11 11:33:29;;;;;;;15.40;5.35;;;;;;;33.33;29.15;96430.97;6238494;22;20114;-83
2023/10/11 11:35:55;;;;;;;12.25;4.68;;;;;;;32.80;30.12;96429.41;6239909;22;20074;-85
2023/10/11 11:38:22;;;;;;;19.45;5.85;;;;;;;33.73;30.00;96431.34;6266242;22;20027;-85
2023/10/11 11:40:51;;;;;;;12.15;4.47;;;;;;;34.81;29.16;96421.66;6265454;22;19999;-85
2023/10/11 11:43:20;;;;;;;33.38;24.67;;;;;;;34.68;29.33;96421.41;6240706;22;20027;-84
2023/10/11 11:45:47;;;;;;;15.00;5.05;;;;;;;33.92;29.73;96418.41;6239389;22;20358;-85
2023/10/11 11:48:14;;;;;;;13.88;4.75;;;;;;;34.81;28.97;96422.47;6264274;22;20003;-85
2023/10/11 11:50:39;;;;;;;12.52;4.03;;;;;;;34.37;29.18;96413.06;6266193;22;20060;-84
2023/10/11 11:53:06;;;;;;;20.48;5.45;;;;;;;34.58;29.44;96407.19;6241001;22;20370;-86
2023/10/11 11:55:34;;;;;;;10.27;4.40;;;;;;;34.20;29.35;96411.00;6265654;22;20011;-85
2023/10/11 11:58:00;;;;;;;11.63;4.40;;;;;;;34.40;30.20;96404.25;6266437;22;20003;-87
2023/10/11 12:02:53;;;;;;;16.48;5.18;;;;;;;35.17;29.33;96400.53;6264422;22;20023;-85
2023/10/11 12:05:19;;;;;;;13.27;4.63;;;;;;;35.36;28.76;96400.31;6239812;22;20003;-82
2023/10/11 12:07:46;;;;;;;23.88;6.25;;;;;;;35.01;30.26;96379.34;6267527;22;20010;-90
2023/10/11 12:10:23;;;;;;;16.85;4.90;;;;;;;34.31;30.64;96389.75;6241415;22;20008;-83
2023/10/11 12:12:53;;;;;;;13.88;4.93;;;;;;;35.08;30.09;96377.81;6240447;22;20034;-84
2023/10/11 12:15:19;;;;;;;13.02;4.70;;;;;;;33.99;30.44;96382.50;6265426;22;20054;-85
2023/10/11 12:17:47;;;;;;;14.35;4.47;;;;;;;33.77;29.75;96381.34;6238492;22;20015;-83
2023/10/11 12:20:14;;;;;;;15.48;5.00;;;;;;;35.14;29.35;96373.00;6265410;22;20102;-84
2023/10/11 12:22:43;;;;;;;12.82;4.85;;;;;;;35.53;28.99;96371.44;6239729;22;19999;-84
2023/10/11 12:25:09;;;;;;;14.07;5.22;;;;;;;35.67;29.25;96377.59;6238725;22;20373;-84
2023/10/11 12:27:40;;;;;;;12.90;4.65;;;;;;;35.49;28.82;96378.66;6265244;22;20011;-85
2023/10/11 12:30:19;;;;;;;9.65;5.22;;;;;;;35.45;28.41;96367.53;6265406;22;20003;-84
2023/10/11 12:32:49;;;;;;;22.13;5.63;;;;;;;35.60;28.34;96369.84;6263771;22;20274;-84
2023/10/11 12:35:16;;;;;;;10.90;4.00;;;;;;;35.14;28.71;96364.81;6262968;22;20143;-84
2023/10/11 12:37:42;;;;;;;12.38;4.57;;;;;;;35.59;28.44;96367.44;6265009;22;20027;-85
2023/10/11 12:40:13;;;;;;;11.52;4.25;;;;;;;35.26;28.23;96354.09;6264648;22;20007;-84
2023/10/11 12:42:45;;;;;;;13.95;4.72;;;;;;;34.69;29.10;96364.84;6240211;22;19996;-84
2023/10/11 12:45:10;;;;;;;15.93;4.90;;;;;;;34.40;29.59;96366.03;6264916;22;20393;-84
2023/10/11 12:47:36;;;;;;;13.23;4.47;;;;;;;34.41;29.55;96364.16;6237953;22;20008;-84
2023/10/11 12:50:03;;;;;;;12.55;4.72;;;;;;;35.04;29.17;96362.34;6265756;22;20053;-85
2023/10/11 12:52:32;;;;;;;20.60;5.40;;;;;;;34.71;29.55;96362.63;6266320;22;20007;-87
2023/10/11 12:55:20;;;;;;;18.13;5.53;;;;;;;34.28;30.38;96360.34;6266466;22;20003;-87
2023/10/11 12:57:53;;;;;;;10.30;4.75;;;;;;;34.07;29.22;96357.25;6241495;22;20022;-89
2023/10/11 13:00:37;;;;;;;10.45;4.45;;;;;;;34.37;28.94;96361.19;6268269;22;20014;-89
2023/10/11 13:03:20;;;;;;;11.93;4.75;;;;;;;35.14;29.03;96362.88;6249065;22;20027;-89
2023/10/11 13:05:46;;;;;;;11.45;4.97;;;;;;;34.86;29.49;96364.97;6257692;22;20026;-89
2023/10/11 13:08:14;;;;;;;13.15;4.28;;;;;;;34.28;29.75;96368.53;6243898;22;20125;-89
2023/10/11 13:10:48;;;;;;;12.48;4.40;;;;;;;34.80;28.91;96357.19;6243610;22;20015;-89
2023/10/11 13:13:15;;;;;;;12.10;3.97;;;;;;;32.81;30.76;96362.13;6241235;22;20027;-86
2023/10/11 13:16:00;;;;;;;14.02;4.28;;;;;;;33.94;29.56;96358.88;6241260;22;20007;-87
2023/10/11 13:18:27;;;;;;;13.05;5.40;;;;;;;34.08;29.50;96358.06;6267055;22;20061;-87
2023/10/11 13:20:55;;;;;;;18.92;5.13;;;;;;;33.82;30.22;96355.88;6242695;22;20046;-87
2023/10/11 13:23:28;;;;;;;13.38;4.53;;;;;;;33.76;30.07;96352.44;6242057;22;20000;-87
2023/10/11 13:26:06;;;;;;;12.65;4.47;;;;;;;33.96;29.65;96351.19;6242622;22;20272;-87
2023/10/11 13:28:33;;;;;;;11.50;5.30;;;;;;;33.72;30.04;96345.16;6242401;22;20011;-86
2023/10/11 13:31:01;;;;;;;9.35;3.97;;;;;;;34.18;29.40;96344.19;6242564;22;20004;-87
2023/10/11 13:33:30;;;;;;;15.82;4.65;;;;;;;34.43;29.53;96343.59;6241620;22;20011;-87
2023/10/11 13:36:00;;;;;;;9.07;4.15;;;;;;;33.56;30.12;96345.47;6268435;22;20004;-87
2023/10/11 13:38:30;;;;;;;14.60;5.00;;;;;;;33.16;30.91;96346.25;6267191;22;20004;-86
2023/10/11 13:40:56;;;;;;;13.50;4.70;;;;;;;32.49;31.04;96349.28;6242779;22;20011;-86
2023/10/11 13:43:22;;;;;;;19.20;4.88;;;;;;;33.07;30.91;96341.50;6267704;22;20083;-86
2023/10/11 13:46:01;;;;;;;14.20;4.80;;;;;;;32.49;31.75;96341.94;6264641;22;20007;-85
2023/10/11 13:48:36;;;;;;;14.30;4.95;;;;;;;33.17;31.20;96334.25;6268701;22;20019;-85
2023/10/11 13:51:03;;;;;;;18.60;5.25;;;;;;;33.19;31.31;96332.03;6245022;22;20450;-84
2023/10/11 13:53:30;;;;;;;20.55;6.00;;;;;;;33.56;31.84;96329.13;6239760;22;20019;-85
2023/10/11 13:56:09;;;;;;;17.95;4.90;;;;;;;33.18;31.68;96333.16;6266189;22;20007;-84
2023/10/11 13:58:35;;;;;;;21.77;7.18;;;;;;;32.77;32.23;96334.66;6241232;22;20003;-84
2023/10/11 14:01:01;;;;;;;17.42;4.35;;;;;;;32.13;32.28;96331.59;6266140;22;20439;-84
2023/10/11 14:08:44;;;;;;;14.63;4.65;;;;;;;31.98;32.18;96311.94;6266689;22;20456;-84
2023/10/11 14:11:17;;;;;;;13.43;4.53;;;;;;;32.07;32.60;96315.63;6241036;22;20007;-84
2023/10/11 14:14:01;;;;;;;13.02;4.30;;;;;;;31.63;33.17;96320.28;6266181;22;19995;-84
2023/10/11 14:16:31;;;;;;;17.75;4.90;;;;;;;31.97;32.92;96319.31;6264597;22;20057;-84
2023/10/11 14:18:56;;;;;;;12.75;4.38;;;;;;;31.75;33.33;96321.75;6241786;22;20092;-84
2023/10/11 14:21:24;;;;;;;14.85;4.40;;;;;;;31.78;33.49;96311.09;6271584;22;20011;-84
2023/10/11 14:23:51;;;;;;;11.75;4.63;;;;;;;31.60;33.66;96310.00;6245005;22;20023;-85
2023/10/11 14:26:17;;;;;;;12.02;4.50;;;;;;;31.79;33.93;96312.75;6272014;22;20005;-84
2023/10/11 14:28:46;;;;;;;12.13;4.65;;;;;;;31.70;33.58;96315.28;6245675;22;20019;-84
2023/10/11 14:31:22;;;;;;;11.98;5.03;;;;;;;32.17;33.49;96302.69;6271198;22;20011;-84
2023/10/11 14:33:49;;;;;;;15.75;4.72;;;;;;;32.51;33.71;96307.06;6243547;22;20381;-85
2023/10/11 14:36:20;;;;;;;13.25;4.47;;;;;;;32.00;33.63;96301.59;6244212;22;20000;-84
2023/10/11 14:38:46;;;;;;;10.60;4.95;;;;;;;31.97;33.99;96299.47;6271957;22;20350;-84
2023/10/11 14:41:14;;;;;;;14.90;4.88;;;;;;;32.18;33.92;96292.59;6271155;22;20011;-84
2023/10/11 14:43:41;;;;;;;13.13;4.50;;;;;;;32.02;34.34;96288.50;6270706;22;20428;-84
2023/10/11 14:46:06;;;;;;;15.80;5.15;;;;;;;32.11;33.84;96286.72;6269850;22;20015;-84
2023/10/11 14:48:34;;;;;;;17.25;4.75;;;;;;;31.98;34.09;96287.47;6245149;22;19999;-85
2023/10/11 14:51:00;;;;;;;12.13;4.85;;;;;;;31.88;34.96;96283.78;6246220;22;20009;-85
2023/10/11 14:53:26;;;;;;;16.40;5.28;;;;;;;31.86;35.38;96282.47;6245707;22;20057;-85
2023/10/11 14:55:54;;;;;;;14.07;5.35;;;;;;;31.53;34.86;96287.00;6299495;22;20442;-84
2023/10/11 14:58:20;;;;;;;12.38;4.88;;;;;;;31.52;34.99;96283.44;6272271;22;20345;-85
2023/10/11 15:00:46;;;;;;;12.55;4.57;;;;;;;31.66;34.97;96284.34;6245530;22;20090;-84
2023/10/11 15:03:13;;;;;;;13.48;4.68;;;;;;;31.45;35.53;96277.56;6244040;22;20419;-84
2023/10/11 15:05:38;;;;;;;11.32;4.38;;;;;;;31.10;36.77;96268.72;6271527;22;20025;-84
2023/10/11 15:08:07;;;;;;;13.68;4.50;;;;;;;30.87;36.81;96278.47;6298888;22;20078;-85
2023/10/11 15:10:34;;;;;;;11.00;4.72;;;;;;;30.94;36.90;96270.78;6244934;22;20003;-85
2023/10/11 15:13:01;;;;;;;13.80;5.80;;;;;;;30.74;37.32;96271.00;6249422;22;20357;-84
2023/10/11 15:15:26;;;;;;;69.88;58.97;;;;;;;30.80;37.52;96271.78;6248492;22;20053;-85
2023/10/11 15:18:01;;;;;;;14.98;8.07;;;;;;;30.26;38.06;96266.28;6250989;22;20003;-86
2023/10/11 15:20:30;;;;;;;13.43;5.65;;;;;;;30.21;38.66;96273.63;6247333;22;20003;-83
2023/10/11 15:22:56;;;;;;;13.98;5.63;;;;;;;30.22;39.57;96276.06;6245619;22;19996;-84
2023/10/11 15:25:22;;;;;;;15.63;5.10;;;;;;;30.50;39.12;96268.25;6245344;22;20002;-83